Time;durP1;ratioP1;P1;durP2;ratioP2;P2;SDS_P1;SDS_P2;PMS_P1;PMS_P2;Temp;Humidity;BMP_temperature;BMP_pressure;BME280_temperature;BME280_humidity;BME280_pressure;Samples;Min_cycle;Max_cycle;Signal;HPM_P1;HPM_P2
2021/07/01 00:01:51;;;;;;;1.27;0.50;;;;;;;;;;5027642;28;20108;-65
2021/07/01 00:04:16;;;;;;;0.45;0.45;;;;;;;;;;5029742;28;20025;-66
2021/07/01 00:06:42;;;;;;;0.75;0.50;;;;;;;;;;5032206;28;20132;-66
2021/07/01 00:09:13;;;;;;;0.52;0.50;;;;;;;;;;5028669;28;20042;-66
2021/07/01 00:11:39;;;;;;;0.50;0.47;;;;;;;;;;5033931;28;20029;-65
2021/07/01 00:14:04;;;;;;;0.57;0.50;;;;;;;;;;5039777;28;20036;-65
2021/07/01 00:16:29;;;;;;;1.25;0.50;;;;;;;;;;5029652;28;20546;-66
2021/07/01 00:18:54;;;;;;;0.70;0.43;;;;;;;;;;5045864;28;20037;-66
2021/07/01 00:21:19;;;;;;;1.00;0.50;;;;;;;;;;5026458;28;20018;-65
2021/07/01 00:23:45;;;;;;;0.68;0.60;;;;;;;;;;5041893;28;20448;-65
2021/07/01 00:26:10;;;;;;;0.95;0.50;;;;;;;;;;5035947;28;20029;-65
2021/07/01 00:28:35;;;;;;;0.70;0.57;;;;;;;;;;5032769;28;20445;-65
2021/07/01 00:31:00;;;;;;;0.57;0.55;;;;;;;;;;5037452;28;20029;-66
2021/07/01 00:33:25;;;;;;;1.08;0.60;;;;;;;;;;5026690;28;20028;-65
2021/07/01 00:35:51;;;;;;;0.73;0.57;;;;;;;;;;5027526;28;20124;-66
2021/07/01 00:38:16;;;;;;;0.95;0.60;;;;;;;;;;5035166;28;20026;-65
2021/07/01 00:40:41;;;;;;;0.63;0.60;;;;;;;;;;5035844;28;20035;-65
2021/07/01 00:43:06;;;;;;;0.60;0.47;;;;;;;;;;5036942;28;20080;-66
2021/07/01 00:45:31;;;;;;;0.57;0.40;;;;;;;;;;5028428;28;20035;-65
2021/07/01 00:47:56;;;;;;;0.73;0.50;;;;;;;;;;5028035;28;20017;-65
2021/07/01 00:50:22;;;;;;;0.60;0.60;;;;;;;;;;5025850;28;21829;-65
2021/07/01 00:52:47;;;;;;;0.60;0.50;;;;;;;;;;5030724;28;20388;-65
2021/07/01 00:55:13;;;;;;;1.00;0.60;;;;;;;;;;5033219;28;20029;-65
2021/07/01 00:57:38;;;;;;;1.17;0.70;;;;;;;;;;5034060;28;20385;-65
2021/07/01 01:00:09;;;;;;;1.48;0.80;;;;;;;;;;5033568;28;20048;-66
2021/07/01 01:02:34;;;;;;;1.73;0.80;;;;;;;;;;5029430;28;20021;-66
2021/07/01 01:04:59;;;;;;;1.33;0.85;;;;;;;;;;5026597;28;21721;-66
2021/07/01 01:07:24;;;;;;;2.38;0.80;;;;;;;;;;5029788;28;20019;-65
2021/07/01 01:09:49;;;;;;;1.33;0.93;;;;;;;;;;5034104;28;20052;-64
2021/07/01 01:12:14;;;;;;;1.23;0.85;;;;;;;;;;5041151;28;20044;-65
2021/07/01 01:14:40;;;;;;;1.17;0.80;;;;;;;;;;5026808;28;20120;-66
2021/07/01 01:17:05;;;;;;;1.27;0.90;;;;;;;;;;5028971;28;20018;-64
2021/07/01 01:19:30;;;;;;;1.30;0.70;;;;;;;;;;5032281;28;20029;-65
2021/07/01 01:21:55;;;;;;;1.13;0.80;;;;;;;;;;5026507;28;20025;-66
2021/07/01 01:24:21;;;;;;;1.83;0.90;;;;;;;;;;5038665;28;20036;-65
2021/07/01 01:26:46;;;;;;;1.20;0.82;;;;;;;;;;5035305;28;20029;-65
2021/07/01 01:29:11;;;;;;;2.28;1.05;;;;;;;;;;5041769;28;20055;-65
2021/07/01 01:31:37;;;;;;;1.58;1.10;;;;;;;;;;5027992;28;20320;-65
2021/07/01 01:34:03;;;;;;;1.40;0.82;;;;;;;;;;5034483;28;20092;-64
2021/07/01 01:36:28;;;;;;;1.55;0.93;;;;;;;;;;5029084;28;20107;-65
2021/07/01 01:38:53;;;;;;;1.23;0.85;;;;;;;;;;5028543;28;20053;-65
2021/07/01 01:41:25;;;;;;;1.33;0.95;;;;;;;;;;5033185;28;20040;-65
2021/07/01 01:43:51;;;;;;;1.60;1.15;;;;;;;;;;5029547;28;20135;-66
2021/07/01 01:46:16;;;;;;;0.80;0.73;;;;;;;;;;5038131;28;20160;-65
2021/07/01 01:48:42;;;;;;;1.67;0.93;;;;;;;;;;5034945;28;20087;-65
2021/07/01 01:51:07;;;;;;;1.52;0.93;;;;;;;;;;5029466;28;20045;-65
2021/07/01 01:53:32;;;;;;;1.77;1.08;;;;;;;;;;5040448;28;20024;-65
2021/07/01 01:55:57;;;;;;;1.20;0.73;;;;;;;;;;5036141;28;20376;-65
2021/07/01 01:58:23;;;;;;;3.05;1.17;;;;;;;;;;5037101;28;20025;-65
2021/07/01 02:00:48;;;;;;;0.95;0.80;;;;;;;;;;5042571;28;20354;-66
2021/07/01 02:03:13;;;;;;;5.07;0.80;;;;;;;;;;5036760;28;20108;-65
2021/07/01 02:05:38;;;;;;;0.82;0.70;;;;;;;;;;5041812;28;20107;-65
2021/07/01 02:08:10;;;;;;;0.90;0.70;;;;;;;;;;5029128;28;20025;-64
2021/07/01 02:10:35;;;;;;;1.70;0.90;;;;;;;;;;5039381;28;20029;-65
2021/07/01 02:13:02;;;;;;;1.25;0.70;;;;;;;;;;5040909;28;20025;-65
2021/07/01 02:15:27;;;;;;;1.10;0.80;;;;;;;;;;5035265;28;20370;-66
2021/07/01 02:17:53;;;;;;;1.67;0.80;;;;;;;;;;5033122;28;20055;-65
2021/07/01 02:20:21;;;;;;;0.90;0.80;;;;;;;;;;5026875;28;20043;-65
2021/07/01 02:22:46;;;;;;;1.10;0.77;;;;;;;;;;5040324;28;20032;-65
2021/07/01 02:25:12;;;;;;;1.20;0.73;;;;;;;;;;5034433;28;20026;-66
2021/07/01 02:27:38;;;;;;;0.93;0.80;;;;;;;;;;5030746;28;20362;-65
2021/07/01 02:30:05;;;;;;;1.52;0.77;;;;;;;;;;5034218;28;20112;-65
2021/07/01 02:32:30;;;;;;;0.60;0.60;;;;;;;;;;5040768;28;20039;-65
2021/07/01 02:34:56;;;;;;;1.00;0.60;;;;;;;;;;5030430;28;20033;-65
2021/07/01 02:37:22;;;;;;;2.15;0.88;;;;;;;;;;5049031;28;20100;-65
2021/07/01 02:39:48;;;;;;;2.15;0.90;;;;;;;;;;5030459;28;20427;-65
2021/07/01 02:42:13;;;;;;;1.90;0.88;;;;;;;;;;5037951;28;20045;-66
2021/07/01 02:44:38;;;;;;;2.60;1.20;;;;;;;;;;5039172;28;20495;-64
2021/07/01 02:47:03;;;;;;;1.95;1.08;;;;;;;;;;5040490;28;20116;-65
2021/07/01 02:49:29;;;;;;;3.33;1.20;;;;;;;;;;5033368;28;20037;-65
2021/07/01 02:51:54;;;;;;;1.10;0.88;;;;;;;;;;5029645;28;20063;-65
2021/07/01 02:54:20;;;;;;;1.77;1.13;;;;;;;;;;5030973;28;20029;-65
2021/07/01 02:56:45;;;;;;;2.05;1.02;;;;;;;;;;5032578;28;20552;-65
2021/07/01 02:59:13;;;;;;;1.50;1.10;;;;;;;;;;5029664;28;20318;-65
2021/07/01 03:01:39;;;;;;;1.85;1.17;;;;;;;;;;5032514;28;20029;-65
2021/07/01 03:04:04;;;;;;;1.88;1.15;;;;;;;;;;5029420;28;20028;-65
2021/07/01 03:06:29;;;;;;;1.80;1.05;;;;;;;;;;5040908;28;20032;-65
2021/07/01 03:08:54;;;;;;;1.67;1.10;;;;;;;;;;5031883;28;20488;-65
2021/07/01 03:11:20;;;;;;;1.73;1.20;;;;;;;;;;5031194;28;20171;-65
2021/07/01 03:13:45;;;;;;;1.50;1.35;;;;;;;;;;5024234;28;20033;-65
2021/07/01 03:16:13;;;;;;;3.03;1.10;;;;;;;;;;5032459;28;20448;-65
2021/07/01 03:18:38;;;;;;;2.55;1.30;;;;;;;;;;5036695;28;20029;-65
2021/07/01 03:21:03;;;;;;;2.42;1.38;;;;;;;;;;5028608;28;20388;-65
2021/07/01 03:23:28;;;;;;;4.35;1.35;;;;;;;;;;5032028;28;20032;-65
2021/07/01 03:25:53;;;;;;;2.33;1.35;;;;;;;;;;5029436;28;20029;-64
2021/07/01 03:28:19;;;;;;;2.17;1.38;;;;;;;;;;5036619;28;20423;-65
2021/07/01 03:30:44;;;;;;;2.50;1.20;;;;;;;;;;5032972;28;20037;-65
2021/07/01 03:33:09;;;;;;;2.30;1.38;;;;;;;;;;5029158;28;20040;-65
2021/07/01 03:35:34;;;;;;;2.25;1.65;;;;;;;;;;5029646;28;20037;-65
2021/07/01 03:38:00;;;;;;;2.95;1.20;;;;;;;;;;5027762;28;20033;-64
2021/07/01 03:40:25;;;;;;;1.92;1.20;;;;;;;;;;5030791;28;20032;-65
2021/07/01 03:42:51;;;;;;;3.15;1.50;;;;;;;;;;5032226;28;20404;-65
2021/07/01 03:45:16;;;;;;;2.10;1.30;;;;;;;;;;5029505;28;20022;-66
2021/07/01 03:47:41;;;;;;;2.17;1.38;;;;;;;;;;5028391;28;20032;-64
2021/07/01 03:50:07;;;;;;;4.45;1.70;;;;;;;;;;5026996;28;20114;-64
2021/07/01 03:52:32;;;;;;;2.10;1.30;;;;;;;;;;5029388;28;20029;-64
2021/07/01 03:54:57;;;;;;;2.65;1.27;;;;;;;;;;5030953;28;20036;-65
2021/07/01 03:57:22;;;;;;;2.22;1.30;;;;;;;;;;5034205;28;20029;-65
2021/07/01 03:59:48;;;;;;;3.45;1.90;;;;;;;;;;5036161;28;20396;-64
2021/07/01 04:02:13;;;;;;;2.58;1.80;;;;;;;;;;5037113;28;20035;-64
2021/07/01 04:04:38;;;;;;;3.33;1.63;;;;;;;;;;5033628;28;20037;-65
2021/07/01 04:07:05;;;;;;;2.55;1.58;;;;;;;;;;5037219;28;20116;-65
2021/07/01 04:09:30;;;;;;;3.88;1.65;;;;;;;;;;5031764;28;20063;-65
2021/07/01 04:11:56;;;;;;;2.65;1.80;;;;;;;;;;5033990;28;20041;-65
2021/07/01 04:14:22;;;;;;;2.55;1.80;;;;;;;;;;5035013;28;20020;-64
2021/07/01 04:16:47;;;;;;;2.95;1.63;;;;;;;;;;5033135;28;20025;-65
2021/07/01 04:19:13;;;;;;;2.55;1.42;;;;;;;;;;5035464;28;20025;-66
2021/07/01 04:21:38;;;;;;;3.88;1.45;;;;;;;;;;5028470;28;20041;-65
2021/07/01 04:24:03;;;;;;;3.03;1.80;;;;;;;;;;5041626;28;20021;-64
2021/07/01 04:26:29;;;;;;;3.17;2.00;;;;;;;;;;5029740;28;20025;-65
2021/07/01 04:28:54;;;;;;;2.55;1.52;;;;;;;;;;5025618;28;20028;-65
2021/07/01 04:31:20;;;;;;;3.28;1.90;;;;;;;;;;5029664;28;20110;-65
2021/07/01 04:33:45;;;;;;;3.22;1.90;;;;;;;;;;5026794;28;20021;-66
2021/07/01 04:36:10;;;;;;;3.03;1.90;;;;;;;;;;5026639;28;20029;-64
2021/07/01 04:38:35;;;;;;;2.80;1.48;;;;;;;;;;5033053;28;20021;-65
2021/07/01 04:41:00;;;;;;;2.38;1.67;;;;;;;;;;5026577;28;20053;-65
2021/07/01 04:43:26;;;;;;;3.25;1.77;;;;;;;;;;5030508;28;20040;-63
2021/07/01 04:45:51;;;;;;;3.03;1.73;;;;;;;;;;5032868;28;20290;-64
2021/07/01 04:48:16;;;;;;;3.03;2.03;;;;;;;;;;5029734;28;20025;-64
2021/07/01 04:50:41;;;;;;;3.55;2.20;;;;;;;;;;5028956;28;20033;-63
2021/07/01 04:53:06;;;;;;;2.60;1.77;;;;;;;;;;5031299;28;20057;-65
2021/07/01 04:55:31;;;;;;;2.75;1.75;;;;;;;;;;5035464;28;20029;-60
2021/07/01 04:57:57;;;;;;;2.70;1.80;;;;;;;;;;5035412;28;20024;-61
2021/07/01 05:00:22;;;;;;;3.25;1.90;;;;;;;;;;5033172;28;20441;-61
2021/07/01 05:02:47;;;;;;;2.35;1.60;;;;;;;;;;5028895;28;20024;-66
2021/07/01 05:05:12;;;;;;;3.15;1.58;;;;;;;;;;5035288;28;20020;-64
2021/07/01 05:07:44;;;;;;;2.70;1.70;;;;;;;;;;5045100;28;20468;-64
2021/07/01 05:10:10;;;;;;;2.75;1.70;;;;;;;;;;5035148;28;20072;-66
2021/07/01 05:12:35;;;;;;;1.80;1.40;;;;;;;;;;5034820;28;20095;-65
2021/07/01 05:15:00;;;;;;;2.80;1.60;;;;;;;;;;5035257;28;20029;-65
2021/07/01 05:17:25;;;;;;;2.60;1.40;;;;;;;;;;5027866;28;20041;-65
2021/07/01 05:19:50;;;;;;;6.07;1.90;;;;;;;;;;5030272;28;20026;-65
2021/07/01 05:22:16;;;;;;;2.75;1.60;;;;;;;;;;5030207;28;20056;-64
2021/07/01 05:24:41;;;;;;;4.35;1.60;;;;;;;;;;5036343;28;20029;-63
2021/07/01 05:27:06;;;;;;;3.78;2.00;;;;;;;;;;5042360;28;20113;-64
2021/07/01 05:29:31;;;;;;;4.65;1.92;;;;;;;;;;5035476;28;20526;-65
2021/07/01 05:31:56;;;;;;;3.15;1.80;;;;;;;;;;5041310;28;20009;-64
2021/07/01 05:34:22;;;;;;;3.95;1.98;;;;;;;;;;5032000;28;20083;-64
2021/07/01 05:36:47;;;;;;;2.38;1.50;;;;;;;;;;5033624;28;20040;-64
2021/07/01 05:39:12;;;;;;;3.00;1.77;;;;;;;;;;5033649;28;20108;-65
2021/07/01 05:41:37;;;;;;;2.72;1.52;;;;;;;;;;5031085;28;20071;-64
2021/07/01 05:44:03;;;;;;;3.25;1.65;;;;;;;;;;5045083;28;20033;-64
2021/07/01 05:46:29;;;;;;;3.78;1.77;;;;;;;;;;5030785;28;20018;-65
2021/07/01 05:48:54;;;;;;;2.05;1.35;;;;;;;;;;5047625;28;20024;-66
2021/07/01 05:51:19;;;;;;;2.38;1.70;;;;;;;;;;5035256;28;20078;-64
2021/07/01 05:56:12;;;;;;;2.58;1.80;;;;;;;;;;5044079;28;20036;-64
2021/07/01 05:58:37;;;;;;;5.70;2.00;;;;;;;;;;5032747;28;20021;-65
2021/07/01 06:01:03;;;;;;;3.78;1.92;;;;;;;;;;5032830;28;20039;-64
2021/07/01 06:03:28;;;;;;;2.67;1.67;;;;;;;;;;5050169;28;20017;-63
2021/07/01 06:05:57;;;;;;;3.42;1.88;;;;;;;;;;5051837;28;20029;-63
2021/07/01 06:08:23;;;;;;;3.65;2.20;;;;;;;;;;5046971;28;20068;-65
2021/07/01 06:10:51;;;;;;;2.88;1.70;;;;;;;;;;5035706;28;20041;-64
2021/07/01 06:13:22;;;;;;;3.70;2.25;;;;;;;;;;5044735;28;20056;-66
2021/07/01 06:15:48;;;;;;;3.30;2.33;;;;;;;;;;5034240;28;20025;-65
2021/07/01 06:18:13;;;;;;;4.45;2.53;;;;;;;;;;5036750;28;20036;-65
2021/07/01 06:20:39;;;;;;;3.28;2.05;;;;;;;;;;5041579;28;20021;-64
2021/07/01 06:23:04;;;;;;;3.42;2.35;;;;;;;;;;5041404;28;20040;-64
2021/07/01 06:25:29;;;;;;;3.20;1.80;;;;;;;;;;5044849;28;20017;-65
2021/07/01 06:27:55;;;;;;;5.07;2.20;;;;;;;;;;5048298;28;20036;-65
2021/07/01 06:30:21;;;;;;;5.75;2.55;;;;;;;;;;5029518;28;20036;-65
2021/07/01 06:32:47;;;;;;;2.88;2.10;;;;;;;;;;5027975;28;20419;-64
2021/07/01 06:35:13;;;;;;;3.00;2.00;;;;;;;;;;5030809;28;20033;-66
2021/07/01 06:37:39;;;;;;;3.35;2.15;;;;;;;;;;5042891;28;20109;-65
2021/07/01 06:40:05;;;;;;;3.17;1.95;;;;;;;;;;5050986;28;20373;-64
2021/07/01 06:42:32;;;;;;;4.85;2.65;;;;;;;;;;5032267;28;20049;-65
2021/07/01 06:44:57;;;;;;;3.10;2.17;;;;;;;;;;5036925;28;20043;-66
2021/07/01 06:47:23;;;;;;;3.65;2.10;;;;;;;;;;5045309;28;20017;-65
2021/07/01 06:49:50;;;;;;;2.85;1.85;;;;;;;;;;5039538;28;20522;-64
2021/07/01 06:52:16;;;;;;;3.20;1.95;;;;;;;;;;5038591;28;20441;-65
2021/07/01 06:54:41;;;;;;;3.05;2.03;;;;;;;;;;5044239;28;20096;-65
2021/07/01 06:57:06;;;;;;;2.97;2.00;;;;;;;;;;5043697;28;20021;-65
2021/07/01 06:59:32;;;;;;;2.67;1.63;;;;;;;;;;5044254;28;20430;-65
2021/07/01 07:01:58;;;;;;;3.25;2.05;;;;;;;;;;5030669;28;20140;-65
2021/07/01 07:04:23;;;;;;;2.85;1.77;;;;;;;;;;5041061;28;20017;-65
2021/07/01 07:06:48;;;;;;;2.97;1.80;;;;;;;;;;5031217;28;20052;-65
2021/07/01 07:09:14;;;;;;;2.92;2.03;;;;;;;;;;5039950;28;20080;-64
2021/07/01 07:11:39;;;;;;;3.10;2.08;;;;;;;;;;5040415;28;20021;-64
2021/07/01 07:14:04;;;;;;;3.78;1.92;;;;;;;;;;5030142;28;20480;-65
2021/07/01 07:16:31;;;;;;;2.40;1.60;;;;;;;;;;5047637;28;20025;-64
2021/07/01 07:18:58;;;;;;;3.65;1.85;;;;;;;;;;5034579;28;20027;-65
2021/07/01 07:21:23;;;;;;;3.50;1.58;;;;;;;;;;5046910;28;20116;-65
2021/07/01 07:23:53;;;;;;;3.03;1.73;;;;;;;;;;5034438;28;20412;-64
2021/07/01 07:26:20;;;;;;;3.22;1.80;;;;;;;;;;5032413;28;20025;-64
2021/07/01 07:28:50;;;;;;;2.85;1.80;;;;;;;;;;5037078;28;20036;-66
2021/07/01 07:31:22;;;;;;;2.08;1.20;;;;;;;;;;5040182;28;20025;-65
2021/07/01 07:33:48;;;;;;;2.05;1.30;;;;;;;;;;5039612;28;20026;-65
2021/07/01 07:36:13;;;;;;;1.65;1.27;;;;;;;;;;5044964;28;20120;-65
2021/07/01 07:38:39;;;;;;;2.17;1.15;;;;;;;;;;5043254;28;20553;-66
2021/07/01 07:41:04;;;;;;;2.17;1.30;;;;;;;;;;5049868;28;20059;-66
2021/07/01 07:43:30;;;;;;;2.83;1.30;;;;;;;;;;5046804;28;20051;-65
2021/07/01 07:45:56;;;;;;;1.88;1.10;;;;;;;;;;5045541;28;20067;-64
2021/07/01 07:48:22;;;;;;;2.20;1.30;;;;;;;;;;5049878;28;20248;-65
2021/07/01 07:50:53;;;;;;;3.90;1.10;;;;;;;;;;5048553;28;20029;-68
2021/07/01 07:53:24;;;;;;;1.50;0.93;;;;;;;;;;5032427;28;20027;-64
2021/07/01 07:55:52;;;;;;;1.25;0.77;;;;;;;;;;5024395;28;20025;-65
2021/07/01 07:58:19;;;;;;;6.95;1.25;;;;;;;;;;5049547;28;20020;-65
2021/07/01 08:00:44;;;;;;;1.60;0.93;;;;;;;;;;5041641;28;20026;-64
2021/07/01 08:03:11;;;;;;;1.05;0.80;;;;;;;;;;5034197;28;20488;-65
2021/07/01 08:05:38;;;;;;;1.25;0.80;;;;;;;;;;5032604;28;20075;-65
2021/07/01 08:08:04;;;;;;;5.20;1.20;;;;;;;;;;5048293;28;20033;-64
2021/07/01 08:10:31;;;;;;;1.88;1.10;;;;;;;;;;5036693;28;20037;-65
2021/07/01 08:13:02;;;;;;;2.17;1.20;;;;;;;;;;5043916;28;20025;-64
2021/07/01 08:15:27;;;;;;;1.95;1.13;;;;;;;;;;5042124;28;20030;-64
2021/07/01 08:17:53;;;;;;;1.90;1.30;;;;;;;;;;5042365;28;20145;-65
2021/07/01 08:20:19;;;;;;;1.83;1.00;;;;;;;;;;5040988;28;20483;-65
2021/07/01 08:22:45;;;;;;;1.67;1.20;;;;;;;;;;5030039;28;20033;-65
2021/07/01 08:25:11;;;;;;;1.95;1.20;;;;;;;;;;5023108;28;20029;-65
2021/07/01 08:27:36;;;;;;;2.28;1.42;;;;;;;;;;5023867;28;20078;-65
2021/07/01 08:30:04;;;;;;;1.98;1.30;;;;;;;;;;5035718;28;20120;-66
2021/07/01 08:32:31;;;;;;;1.40;0.93;;;;;;;;;;5048935;28;20025;-65
2021/07/01 08:34:57;;;;;;;2.58;1.40;;;;;;;;;;5048664;28;20104;-64
2021/07/01 08:37:23;;;;;;;2.45;1.50;;;;;;;;;;5045077;28;20025;-65
2021/07/01 08:39:49;;;;;;;2.03;1.27;;;;;;;;;;5035703;28;20071;-65
2021/07/01 08:42:15;;;;;;;2.72;1.42;;;;;;;;;;5044230;28;20550;-64
2021/07/01 08:44:44;;;;;;;2.35;1.35;;;;;;;;;;5029587;28;20029;-64
2021/07/01 08:47:09;;;;;;;2.10;1.40;;;;;;;;;;5039684;28;20013;-64
2021/07/01 08:49:37;;;;;;;3.45;1.10;;;;;;;;;;5035912;28;20095;-65
2021/07/01 08:52:03;;;;;;;2.05;1.30;;;;;;;;;;5047011;28;20414;-65
2021/07/01 08:54:36;;;;;;;1.30;1.10;;;;;;;;;;5048022;28;20021;-65
2021/07/01 08:57:05;;;;;;;1.55;1.08;;;;;;;;;;5037849;28;20025;-64
2021/07/01 08:59:43;;;;;;;1.83;1.30;;;;;;;;;;5043643;28;20025;-66
2021/07/01 09:02:09;;;;;;;2.40;1.20;;;;;;;;;;5030147;28;20029;-64
2021/07/01 09:04:39;;;;;;;2.13;1.50;;;;;;;;;;5035129;28;20528;-65
2021/07/01 09:07:05;;;;;;;1.92;1.20;;;;;;;;;;5042518;28;20104;-65
2021/07/01 09:09:32;;;;;;;3.00;1.70;;;;;;;;;;5035128;28;20066;-65
2021/07/01 09:11:58;;;;;;;3.15;1.67;;;;;;;;;;5036661;28;20021;-65
2021/07/01 09:14:25;;;;;;;3.53;1.65;;;;;;;;;;5036164;28;20029;-65
2021/07/01 09:16:51;;;;;;;4.30;1.77;;;;;;;;;;5029113;28;20017;-64
2021/07/01 09:19:17;;;;;;;3.03;1.73;;;;;;;;;;5035619;28;20078;-64
2021/07/01 09:21:45;;;;;;;4.03;1.80;;;;;;;;;;5029424;28;20029;-65
2021/07/01 09:24:12;;;;;;;2.50;1.58;;;;;;;;;;5033249;28;20036;-64
2021/07/01 09:26:38;;;;;;;4.03;1.95;;;;;;;;;;5048769;28;20017;-65
2021/07/01 09:29:04;;;;;;;3.60;1.70;;;;;;;;;;5040577;28;20035;-65
2021/07/01 09:31:29;;;;;;;3.60;1.90;;;;;;;;;;5043393;28;20098;-65
2021/07/01 09:33:54;;;;;;;3.10;1.90;;;;;;;;;;5048307;28;20020;-65
2021/07/01 09:36:21;;;;;;;2.42;1.65;;;;;;;;;;5032455;28;20025;-65
2021/07/01 09:38:46;;;;;;;2.58;1.90;;;;;;;;;;5044807;28;20021;-65
2021/07/01 09:41:12;;;;;;;3.17;1.67;;;;;;;;;;5038956;28;20060;-65
2021/07/01 09:43:39;;;;;;;3.55;2.10;;;;;;;;;;5031329;28;20448;-65
2021/07/01 09:46:05;;;;;;;3.35;2.10;;;;;;;;;;5048603;28;20025;-65
2021/07/01 09:48:34;;;;;;;4.40;2.17;;;;;;;;;;5048882;28;20021;-65
2021/07/01 09:51:02;;;;;;;3.85;1.83;;;;;;;;;;5039633;28;20528;-65
2021/07/01 09:53:28;;;;;;;3.30;1.58;;;;;;;;;;5036953;28;20032;-65
2021/07/01 09:55:54;;;;;;;2.72;1.80;;;;;;;;;;5034147;28;20060;-64
2021/07/01 09:58:20;;;;;;;2.50;1.73;;;;;;;;;;5043059;28;20374;-65
2021/07/01 10:00:49;;;;;;;2.55;1.52;;;;;;;;;;5048048;28;20431;-65
2021/07/01 10:03:15;;;;;;;3.80;1.93;;;;;;;;;;5033144;28;20114;-65
2021/07/01 10:05:40;;;;;;;2.97;1.92;;;;;;;;;;5036974;28;20107;-64
2021/07/01 10:08:05;;;;;;;2.87;1.60;;;;;;;;;;5032355;28;20178;-65
2021/07/01 10:10:47;;;;;;;3.05;1.85;;;;;;;;;;5032266;28;20300;-65
2021/07/01 10:13:13;;;;;;;2.33;1.63;;;;;;;;;;5025987;28;20021;-65
2021/07/01 10:15:40;;;;;;;2.95;1.55;;;;;;;;;;5039838;28;20039;-65
2021/07/01 10:18:06;;;;;;;2.28;1.55;;;;;;;;;;5033693;28;20465;-65
2021/07/01 10:20:32;;;;;;;2.92;1.55;;;;;;;;;;5043795;28;20014;-66
2021/07/01 10:22:58;;;;;;;2.50;1.70;;;;;;;;;;5037895;28;20071;-65
2021/07/01 10:25:27;;;;;;;2.53;1.80;;;;;;;;;;5035330;28;20013;-65
2021/07/01 10:27:53;;;;;;;2.22;1.80;;;;;;;;;;5044263;28;20439;-65
2021/07/01 10:30:28;;;;;;;3.17;1.98;;;;;;;;;;5044976;28;20033;-65
2021/07/01 10:32:54;;;;;;;3.80;2.10;;;;;;;;;;5051514;28;20037;-65
2021/07/01 10:35:29;;;;;;;2.95;1.90;;;;;;;;;;5043307;28;20443;-65
2021/07/01 10:37:59;;;;;;;2.80;2.05;;;;;;;;;;5040235;28;20025;-66
2021/07/01 10:40:24;;;;;;;;;;;;;;;;;;5051524;28;20024;-65
2021/07/01 10:42:51;;;;;;;3.15;1.60;;;;;;;;;;5050787;28;20268;-66
2021/07/01 10:45:16;;;;;;;2.95;1.85;;;;;;;;;;5042053;28;20021;-66
2021/07/01 10:47:41;;;;;;;2.72;1.95;;;;;;;;;;5031715;28;20028;-67
2021/07/01 10:50:29;;;;;;;2.47;1.80;;;;;;;;;;5031716;28;20029;-66
2021/07/01 10:52:54;;;;;;;2.50;1.60;;;;;;;;;;5041003;28;20024;-65
2021/07/01 10:55:19;;;;;;;2.38;1.55;;;;;;;;;;5046427;28;20021;-65
2021/07/01 10:57:50;;;;;;;2.70;1.42;;;;;;;;;;5044044;28;20021;-65
2021/07/01 11:00:16;;;;;;;2.28;1.50;;;;;;;;;;5041001;28;20542;-66
2021/07/01 11:02:49;;;;;;;2.53;1.45;;;;;;;;;;5031603;28;20036;-66
2021/07/01 11:05:15;;;;;;;2.00;1.30;;;;;;;;;;5028570;28;20403;-65
2021/07/01 11:07:41;;;;;;;3.58;1.50;;;;;;;;;;5047306;28;20016;-65
2021/07/01 11:10:06;;;;;;;3.72;2.00;;;;;;;;;;5050578;28;20630;-66
2021/07/01 11:12:40;;;;;;;2.67;1.77;;;;;;;;;;5050379;28;20021;-65
2021/07/01 11:15:05;;;;;;;3.67;1.92;;;;;;;;;;5046441;28;20029;-66
2021/07/01 11:17:35;;;;;;;2.90;2.00;;;;;;;;;;5043465;28;20028;-65
2021/07/01 11:20:14;;;;;;;4.15;1.85;;;;;;;;;;5034168;28;20021;-65
2021/07/01 11:22:43;;;;;;;3.63;2.20;;;;;;;;;;5044080;28;20035;-66
2021/07/01 11:25:19;;;;;;;2.95;2.13;;;;;;;;;;5043930;28;20404;-64
2021/07/01 11:27:44;;;;;;;2.97;2.05;;;;;;;;;;5043536;28;20033;-66
2021/07/01 11:30:20;;;;;;;4.35;2.55;;;;;;;;;;5050135;28;20033;-65
2021/07/01 11:32:45;;;;;;;3.72;2.45;;;;;;;;;;5030824;28;20091;-65
2021/07/01 11:35:21;;;;;;;4.27;2.43;;;;;;;;;;5030847;28;20391;-65
2021/07/01 11:37:46;;;;;;;5.00;2.50;;;;;;;;;;5030408;28;20655;-66
2021/07/01 11:40:12;;;;;;;3.33;2.40;;;;;;;;;;5037272;28;20030;-66
2021/07/01 11:42:37;;;;;;;3.90;2.50;;;;;;;;;;5036537;28;20406;-65
2021/07/01 11:45:03;;;;;;;5.43;2.90;;;;;;;;;;5050217;28;20040;-65
2021/07/01 11:47:30;;;;;;;4.38;3.03;;;;;;;;;;5038188;28;20021;-65
2021/07/01 11:49:55;;;;;;;4.47;2.72;;;;;;;;;;5048775;28;20052;-65
2021/07/01 11:52:21;;;;;;;3.88;2.70;;;;;;;;;;5031866;28;20017;-65
2021/07/01 11:54:46;;;;;;;4.85;3.10;;;;;;;;;;5035104;28;20087;-65
2021/07/01 11:57:11;;;;;;;4.85;2.72;;;;;;;;;;5032516;28;20025;-65
2021/07/01 11:59:37;;;;;;;4.28;2.42;;;;;;;;;;5029939;28;20026;-66
2021/07/01 12:02:02;;;;;;;4.30;2.53;;;;;;;;;;5029962;28;20031;-66
2021/07/01 12:04:35;;;;;;;4.10;2.33;;;;;;;;;;5030108;28;20076;-66
2021/07/01 12:07:03;;;;;;;3.28;2.38;;;;;;;;;;5040862;28;20044;-66
2021/07/01 12:09:29;;;;;;;3.92;2.22;;;;;;;;;;5049496;28;20543;-66
2021/07/01 12:12:00;;;;;;;3.58;2.45;;;;;;;;;;5042082;28;20026;-65
2021/07/01 12:14:34;;;;;;;4.70;2.60;;;;;;;;;;5030375;28;20079;-66
2021/07/01 12:16:59;;;;;;;4.32;2.50;;;;;;;;;;5030352;28;20119;-66
2021/07/01 12:19:54;;;;;;;4.60;2.30;;;;;;;;;;5035958;28;20513;-67
2021/07/01 12:22:38;;;;;;;6.93;2.42;;;;;;;;;;5026907;28;20353;-66
2021/07/01 12:25:03;;;;;;;4.05;2.50;;;;;;;;;;5035492;28;20028;-65
2021/07/01 12:27:31;;;;;;;3.58;2.55;;;;;;;;;;5039830;28;20387;-66
2021/07/01 12:29:57;;;;;;;3.63;2.47;;;;;;;;;;5029954;28;20068;-65
2021/07/01 12:32:23;;;;;;;3.45;2.53;;;;;;;;;;5042932;28;20048;-64
2021/07/01 12:34:48;;;;;;;3.20;2.30;;;;;;;;;;5036513;28;20156;-65
2021/07/01 12:37:14;;;;;;;4.38;2.35;;;;;;;;;;5038065;28;20486;-65
2021/07/01 12:39:39;;;;;;;3.22;2.25;;;;;;;;;;5029370;28;20033;-65
2021/07/01 12:42:04;;;;;;;4.75;2.33;;;;;;;;;;5036249;28;20037;-64
2021/07/01 12:44:30;;;;;;;2.85;1.85;;;;;;;;;;5025537;28;20022;-65
2021/07/01 12:46:55;;;;;;;3.50;2.28;;;;;;;;;;5031756;28;20265;-66
2021/07/01 12:49:22;;;;;;;3.63;1.75;;;;;;;;;;5029761;28;20029;-64
2021/07/01 12:51:48;;;;;;;3.80;1.70;;;;;;;;;;5028979;28;20032;-64
2021/07/01 12:54:14;;;;;;;2.45;1.80;;;;;;;;;;5034983;28;20017;-66
2021/07/01 12:56:39;;;;;;;3.70;2.45;;;;;;;;;;5034155;28;20068;-64
2021/07/01 12:59:05;;;;;;;3.10;1.73;;;;;;;;;;5028758;28;20413;-66
2021/07/01 13:01:30;;;;;;;3.25;1.80;;;;;;;;;;5028921;28;20025;-66
2021/07/01 13:03:55;;;;;;;3.80;1.93;;;;;;;;;;5032085;28;20107;-65
2021/07/01 13:06:21;;;;;;;2.97;1.80;;;;;;;;;;5032909;28;20778;-66
2021/07/01 13:08:47;;;;;;;2.65;1.55;;;;;;;;;;5025974;28;20026;-65
2021/07/01 13:11:12;;;;;;;2.67;1.63;;;;;;;;;;5030548;28;20447;-65
2021/07/01 13:13:37;;;;;;;3.30;1.67;;;;;;;;;;5025081;28;20014;-65
2021/07/01 13:16:05;;;;;;;2.80;1.80;;;;;;;;;;5030455;28;20057;-66
2021/07/01 13:18:30;;;;;;;4.00;2.28;;;;;;;;;;5023400;28;20269;-65
2021/07/01 13:21:16;;;;;;;7.28;2.45;;;;;;;;;;5024105;28;20018;-65
2021/07/01 13:23:41;;;;;;;3.13;2.25;;;;;;;;;;5024983;28;20108;-65
2021/07/01 13:26:13;;;;;;;3.58;2.20;;;;;;;;;;5026534;28;20121;-65
2021/07/01 13:28:39;;;;;;;2.97;2.08;;;;;;;;;;5025125;28;20030;-65
2021/07/01 13:31:04;;;;;;;3.95;2.38;;;;;;;;;;5019208;28;20034;-65
2021/07/01 13:33:29;;;;;;;2.75;2.05;;;;;;;;;;5022973;28;20536;-66
2021/07/01 13:35:55;;;;;;;4.18;2.08;;;;;;;;;;5029047;28;20071;-65
2021/07/01 13:38:21;;;;;;;3.95;2.08;;;;;;;;;;5023237;28;20460;-65
2021/07/01 13:40:48;;;;;;;2.58;2.08;;;;;;;;;;5034029;28;20099;-65
2021/07/01 13:43:17;;;;;;;2.92;2.10;;;;;;;;;;5033304;28;20045;-65
2021/07/01 13:45:44;;;;;;;4.38;2.25;;;;;;;;;;5034849;28;20437;-64
2021/07/01 13:48:15;;;;;;;3.25;1.85;;;;;;;;;;5030870;28;20056;-64
2021/07/01 13:50:49;;;;;;;5.13;2.47;;;;;;;;;;5025420;28;20061;-65
2021/07/01 13:53:19;;;;;;;3.08;2.13;;;;;;;;;;5047649;28;20025;-65
2021/07/01 13:55:45;;;;;;;4.40;2.25;;;;;;;;;;5040475;28;20037;-64
2021/07/01 13:58:11;;;;;;;4.22;2.58;;;;;;;;;;5032374;28;20029;-65
2021/07/01 14:00:38;;;;;;;3.08;2.10;;;;;;;;;;5036625;28;20029;-65
2021/07/01 14:03:09;;;;;;;3.70;1.90;;;;;;;;;;5048655;28;20033;-64
2021/07/01 14:05:39;;;;;;;3.50;2.15;;;;;;;;;;5034726;28;20021;-65
2021/07/01 14:08:05;;;;;;;4.45;2.53;;;;;;;;;;5028323;28;20052;-65
2021/07/01 14:10:32;;;;;;;3.38;2.20;;;;;;;;;;5038273;28;20037;-64
2021/07/01 14:12:57;;;;;;;3.53;2.17;;;;;;;;;;5036058;28;20112;-64
2021/07/01 14:15:23;;;;;;;3.20;2.08;;;;;;;;;;5031482;28;20109;-66
2021/07/01 14:17:48;;;;;;;4.28;2.60;;;;;;;;;;5031078;28;20172;-65
2021/07/01 14:20:15;;;;;;;4.03;2.33;;;;;;;;;;5038730;28;20021;-64
2021/07/01 14:22:40;;;;;;;4.15;2.53;;;;;;;;;;5029417;28;20021;-64
2021/07/01 14:25:19;;;;;;;3.25;2.33;;;;;;;;;;5033688;28;20477;-64
2021/07/01 14:27:45;;;;;;;5.63;2.93;;;;;;;;;;5027357;28;20380;-65
2021/07/01 14:30:11;;;;;;;3.53;2.15;;;;;;;;;;5029890;28;20284;-64
2021/07/01 14:32:36;;;;;;;6.35;2.38;;;;;;;;;;5032724;28;20116;-65
2021/07/01 14:35:02;;;;;;;3.45;1.92;;;;;;;;;;5040174;28;20025;-65
2021/07/01 14:37:27;;;;;;;8.63;2.28;;;;;;;;;;5041503;28;20021;-65
2021/07/01 14:39:59;;;;;;;5.88;2.38;;;;;;;;;;5031907;28;20026;-65
2021/07/01 14:42:24;;;;;;;3.55;2.25;;;;;;;;;;5035557;28;20122;-64